createdAt,value
2022-09-05T00:02:15.234Z,8.77
2022-09-05T00:06:16.596Z,6.33
2022-09-05T00:10:37.294Z,5.27
2022-09-05T00:15:31.198Z,5.10
2022-09-05T00:24:22.526Z,4.57
2022-09-05T00:24:42.327Z,5.00
2022-09-05T00:28:52.970Z,5.87
2022-09-05T00:33:32.255Z,6.40
2022-09-05T00:37:45.446Z,9.50
2022-09-05T00:41:43.001Z,4.53
2022-09-05T00:45:58.656Z,5.03
2022-09-05T00:50:03.301Z,4.93
2022-09-05T00:54:24.829Z,4.00
2022-09-05T00:59:04.215Z,5.30
2022-09-05T01:03:35.400Z,4.37
2022-09-05T01:07:51.342Z,5.57
2022-09-05T01:12:27.155Z,5.87
2022-09-05T01:16:45.355Z,6.17
2022-09-05T01:21:00.473Z,6.07
2022-09-05T01:25:20.108Z,4.93
2022-09-05T01:29:53.438Z,6.30
2022-09-05T01:34:39.717Z,5.50
2022-09-05T01:40:12.034Z,4.00
2022-09-05T01:44:09.535Z,4.40
2022-09-05T01:48:23.679Z,4.63
2022-09-05T01:53:10.816Z,4.60
2022-09-05T01:57:24.370Z,4.27
2022-09-05T02:02:18.943Z,5.23
2022-09-05T02:06:39.186Z,5.03
2022-09-05T02:11:01.595Z,5.03
2022-09-05T02:15:10.109Z,4.53
2022-09-05T02:19:09.560Z,4.23
2022-09-05T02:23:40.408Z,5.63
2022-09-05T02:28:04.875Z,3.97
2022-09-05T02:32:29.680Z,6.23
2022-09-05T02:36:48.757Z,5.63
2022-09-05T02:45:21.234Z,4.83
2022-09-05T02:45:27.259Z,7.20
2022-09-05T02:52:21.204Z,5.90
2022-09-05T02:57:33.580Z,5.60
2022-09-05T02:59:09.030Z,7.20
2022-09-05T03:03:29.106Z,6.13
2022-09-05T03:08:00.024Z,5.13
2022-09-05T03:12:59.688Z,6.23
2022-09-05T03:17:44.380Z,10.00
2022-09-05T03:22:18.910Z,5.40
2022-09-05T03:26:56.047Z,8.97
2022-09-05T03:31:06.661Z,6.67
2022-09-05T03:35:43.650Z,9.37
2022-09-05T03:40:29.045Z,10.13
2022-09-05T03:45:12.057Z,9.37
2022-09-05T03:52:15.205Z,6.20
2022-09-05T03:57:15.712Z,7.83
2022-09-05T03:59:22.912Z,6.13
2022-09-05T04:08:06.107Z,5.27
2022-09-05T04:08:32.521Z,5.57
2022-09-05T04:12:47.688Z,5.50
2022-09-05T04:17:00.543Z,7.23
2022-09-05T04:21:12.884Z,4.07
2022-09-05T04:25:31.454Z,4.97
2022-09-05T04:29:48.860Z,4.17
2022-09-05T04:34:09.154Z,4.73
2022-09-05T04:38:15.254Z,7.93
2022-09-05T04:42:23.029Z,7.37
2022-09-05T04:46:48.852Z,9.47
2022-09-05T04:51:08.498Z,10.17
2022-09-05T04:55:33.085Z,9.30
2022-09-05T05:03:29.933Z,8.17
2022-09-05T05:06:16.110Z,10.43
2022-09-05T05:08:54.613Z,9.40
2022-09-05T05:17:58.023Z,7.93
2022-09-05T05:18:38.632Z,10.70
2022-09-05T05:22:18.434Z,8.83
2022-09-05T05:26:41.150Z,8.73
2022-09-05T05:30:40.456Z,7.20
2022-09-05T05:34:47.317Z,8.17
2022-09-05T05:39:02.854Z,8.50
2022-09-05T05:43:26.518Z,9.57
2022-09-05T05:47:37.059Z,8.70
2022-09-05T05:52:02.521Z,5.27
2022-09-05T05:56:41.593Z,11.37
2022-09-05T06:01:00.368Z,7.87
2022-09-05T06:05:50.384Z,7.77
2022-09-05T06:14:52.224Z,5.33
2022-09-05T06:15:12.281Z,8.17
2022-09-05T06:20:39.229Z,13.33
2022-09-05T06:24:58.504Z,7.67
2022-09-05T06:29:48.330Z,7.70
2022-09-05T06:33:57.559Z,6.40
2022-09-05T06:38:30.238Z,8.80
2022-09-05T06:42:49.190Z,8.10
2022-09-05T06:47:07.776Z,13.23
2022-09-05T06:51:30.712Z,9.17
2022-09-05T06:56:08.630Z,9.10
2022-09-05T07:00:22.520Z,11.20
2022-09-05T07:05:24.540Z,10.97
2022-09-05T07:09:22.161Z,29.75
2022-09-05T07:13:42.194Z,9.52
2022-09-05T07:18:13.199Z,12.07
2022-09-05T07:22:48.410Z,9.98
2022-09-05T07:26:53.820Z,10.98
2022-09-05T07:31:00.980Z,7.75
2022-09-05T07:35:03.246Z,9.57
2022-09-05T07:39:27.781Z,9.43
2022-09-05T07:43:32.438Z,9.75
2022-09-05T07:48:00.216Z,8.05
2022-09-05T07:56:53.780Z,8.40
2022-09-05T08:01:14.684Z,10.57
2022-09-05T08:05:18.917Z,6.78
2022-09-05T08:10:05.940Z,9.23
2022-09-05T08:14:43.967Z,6.75
2022-09-05T08:19:01.140Z,8.63
2022-09-05T08:23:33.716Z,10.05
2022-09-05T08:28:11.638Z,7.03
2022-09-05T08:32:35.358Z,10.15
2022-09-05T08:36:41.762Z,10.68
2022-09-05T08:41:06.486Z,7.72
2022-09-05T08:46:48.546Z,7.18
2022-09-05T08:50:26.937Z,11.18
2022-09-05T08:54:40.833Z,7.45
2022-09-05T08:58:46.317Z,10.07
2022-09-05T09:03:13.186Z,9.52
2022-09-05T09:07:51.119Z,7.15
2022-09-05T09:12:10.779Z,4.93
2022-09-05T09:16:34.132Z,6.47
2022-09-05T09:20:56.875Z,5.10
2022-09-05T09:25:16.063Z,5.22
2022-09-05T09:29:18.955Z,4.85
2022-09-05T09:33:32.593Z,4.90
2022-09-05T09:38:28.347Z,4.95
2022-09-05T09:42:40.325Z,4.10
2022-09-05T09:46:49.830Z,3.90
2022-09-05T09:51:13.944Z,6.32
2022-09-05T09:55:52.193Z,4.13
2022-09-05T10:00:15.781Z,4.75
2022-09-05T10:10:38.534Z,5.15
2022-09-05T10:10:46.526Z,4.57
2022-09-05T10:14:30.684Z,4.47
2022-09-05T10:20:07.869Z,4.10
2022-09-05T10:24:39.146Z,5.03
2022-09-05T10:29:11.741Z,2.92
2022-09-05T10:35:23.266Z,3.30
2022-09-05T10:38:11.562Z,2.78
2022-09-05T10:42:43.369Z,2.70
2022-09-05T10:47:17.068Z,6.20
2022-09-05T10:51:26.974Z,2.97
2022-09-05T10:56:14.362Z,3.00
2022-09-05T11:02:26.863Z,3.80
2022-09-05T11:05:37.589Z,2.80
2022-09-05T11:10:08.494Z,2.83
2022-09-05T11:14:26.560Z,2.95
2022-09-05T11:18:55.964Z,2.40
2022-09-05T11:23:04.922Z,3.05
2022-09-05T11:27:26.225Z,2.60
2022-09-05T11:31:52.482Z,2.28
2022-09-05T11:39:52.236Z,2.60
2022-09-05T11:41:23.847Z,2.95
2022-09-05T11:45:52.234Z,1.88
2022-09-05T11:50:22.191Z,1.85
2022-09-05T11:55:05.428Z,2.28
2022-09-05T11:59:44.901Z,2.20
2022-09-05T12:04:00.247Z,3.40
2022-09-05T12:08:44.132Z,2.20
2022-09-05T12:13:29.303Z,2.20
2022-09-05T12:17:49.558Z,2.80
2022-09-05T12:22:28.538Z,2.17
2022-09-05T12:27:40.469Z,2.47
2022-09-05T12:32:59.485Z,2.08
2022-09-05T12:39:52.163Z,2.20
2022-09-05T12:41:38.190Z,2.17
2022-09-05T12:45:36.454Z,2.97
2022-09-05T12:49:52.258Z,1.73
2022-09-05T12:54:09.382Z,1.83
2022-09-05T13:03:01.267Z,1.95
2022-09-05T13:03:28.790Z,1.85
2022-09-05T13:07:42.936Z,1.80
2022-09-05T13:14:54.910Z,2.65
2022-09-05T13:16:39.807Z,1.80
2022-09-05T13:20:45.745Z,4.28
2022-09-05T13:24:53.451Z,6.22
2022-09-05T13:29:09.824Z,2.20
2022-09-05T13:37:55.157Z,1.73
2022-09-05T13:38:20.787Z,1.95
2022-09-05T13:42:10.440Z,2.88
2022-09-05T13:46:26.329Z,2.28
2022-09-05T13:50:30.956Z,2.83
2022-09-05T13:55:09.489Z,2.05
2022-09-05T13:59:15.065Z,5.15
2022-09-05T14:03:40.221Z,2.10
2022-09-05T14:08:19.683Z,3.50
2022-09-05T14:12:37.258Z,4.90
2022-09-05T14:16:53.576Z,1.83
2022-09-05T14:21:15.990Z,1.80
2022-09-05T14:25:24.767Z,2.67
2022-09-05T14:29:33.200Z,4.00
2022-09-05T14:37:55.498Z,2.20
2022-09-05T14:38:19.124Z,1.90
2022-09-05T14:42:35.374Z,1.88
2022-09-05T14:46:54.054Z,2.75
2022-09-05T14:51:25.751Z,2.05
2022-09-05T14:55:23.283Z,2.55
2022-09-05T15:02:53.743Z,4.72
2022-09-05T15:10:23.937Z,2.00
2022-09-05T15:13:02.619Z,1.85
2022-09-05T15:17:05.732Z,2.67
2022-09-05T15:21:41.326Z,2.20
2022-09-05T15:25:51.346Z,6.40
2022-09-05T15:29:56.129Z,4.47
2022-09-05T15:33:54.686Z,2.15
2022-09-05T15:37:51.685Z,1.90
2022-09-05T15:41:49.150Z,2.92
2022-09-05T15:45:50.113Z,1.92
2022-09-05T15:49:53.207Z,2.08
2022-09-05T15:53:56.400Z,3.15
2022-09-05T15:58:04.793Z,3.15
2022-09-05T16:02:12.278Z,2.13
2022-09-05T16:10:33.452Z,3.58
2022-09-05T16:11:07.022Z,3.05
2022-09-05T16:15:35.862Z,2.50
2022-09-05T16:23:31.186Z,4.10
2022-09-05T16:24:11.295Z,3.15
2022-09-05T16:28:36.523Z,3.60
2022-09-05T16:32:41.430Z,4.22
2022-09-05T16:37:08.952Z,2.40
2022-09-05T16:41:24.310Z,2.55
2022-09-05T16:45:24.990Z,4.70
2022-09-05T16:49:42.023Z,4.40
2022-09-05T16:53:50.814Z,2.40
2022-09-05T16:58:14.627Z,3.40
2022-09-05T17:02:30.408Z,3.20
2022-09-05T17:06:55.994Z,4.47
2022-09-05T17:11:13.811Z,4.72
2022-09-05T17:15:38.311Z,3.05
2022-09-05T17:20:06.282Z,5.05
2022-09-05T17:29:20.804Z,4.93
2022-09-05T17:29:47.278Z,3.10
2022-09-05T17:33:29.888Z,4.32
2022-09-05T17:38:11.198Z,2.20
2022-09-05T17:42:41.528Z,3.83
2022-09-05T17:47:10.345Z,2.78
2022-09-05T17:51:18.537Z,2.50
2022-09-05T17:55:18.430Z,11.27
2022-09-05T17:59:21.386Z,17.17
2022-09-05T18:03:37.161Z,5.78
2022-09-05T18:07:34.816Z,13.23
2022-09-05T18:12:02.860Z,10.70
2022-09-05T18:15:59.845Z,6.30
2022-09-05T18:20:10.040Z,3.58
2022-09-05T18:24:15.835Z,2.55
2022-09-05T18:28:34.624Z,4.15
2022-09-05T18:33:55.057Z,4.18
2022-09-05T18:37:36.273Z,5.90
2022-09-05T18:41:38.494Z,9.00
2022-09-05T18:45:38.245Z,6.50
2022-09-05T18:50:25.377Z,4.32
2022-09-05T18:54:20.234Z,7.18
2022-09-05T18:58:27.385Z,6.85
2022-09-05T19:02:58.665Z,8.13
2022-09-05T19:07:09.184Z,4.80
2022-09-05T19:11:25.336Z,5.15
2022-09-05T19:15:31.222Z,7.40
2022-09-05T19:19:31.425Z,11.13
2022-09-05T19:23:34.733Z,9.85
2022-09-05T19:30:40.706Z,6.03
2022-09-05T19:36:49.414Z,4.93
2022-09-05T19:37:02.249Z,5.85
2022-09-05T19:47:29.479Z,3.78
2022-09-05T19:47:38.548Z,3.80
2022-09-05T19:49:24.478Z,6.45
2022-09-05T19:53:22.537Z,8.35
2022-09-05T19:57:21.112Z,7.93
2022-09-05T20:01:23.072Z,7.75
2022-09-05T20:05:22.918Z,11.18
2022-09-05T20:09:23.988Z,11.68
2022-09-05T20:13:25.452Z,6.55
2022-09-05T20:17:32.287Z,8.45
2022-09-05T20:21:33.925Z,5.72
2022-09-05T20:25:43.752Z,5.03
2022-09-05T20:30:00.216Z,5.13
2022-09-05T20:33:58.757Z,5.30
2022-09-05T20:43:09.123Z,5.07
2022-09-05T20:43:31.792Z,5.82
2022-09-05T20:48:58.786Z,5.10
2022-09-05T20:54:23.017Z,6.65
2022-09-05T20:55:46.279Z,7.50
2022-09-05T20:59:47.232Z,4.10
2022-09-05T21:04:06.614Z,7.22
2022-09-05T21:08:32.799Z,5.30
2022-09-05T21:12:45.553Z,5.13
2022-09-05T21:16:56.030Z,4.65
2022-09-05T21:20:57.401Z,5.07
2022-09-05T21:25:16.314Z,6.38
2022-09-05T21:29:13.242Z,5.90
2022-09-05T21:33:21.629Z,6.43
2022-09-05T21:37:25.643Z,6.18
2022-09-05T21:41:22.647Z,5.63
2022-09-05T21:47:41.524Z,6.10
2022-09-05T21:49:38.796Z,6.13
2022-09-05T21:58:37.605Z,4.80
2022-09-05T21:59:20.184Z,6.07
2022-09-05T22:02:23.341Z,4.50
2022-09-05T22:06:20.583Z,5.40
2022-09-05T22:10:17.590Z,6.40
2022-09-05T22:14:14.564Z,6.22
2022-09-05T22:18:17.566Z,5.75
2022-09-05T22:22:24.452Z,5.50
2022-09-05T22:26:21.976Z,4.80
2022-09-05T22:30:19.070Z,5.05
2022-09-05T22:34:16.563Z,5.90
2022-09-05T22:38:19.302Z,7.63
2022-09-05T22:42:17.100Z,6.53
2022-09-05T22:46:14.775Z,6.32
2022-09-05T22:50:11.768Z,8.05
2022-09-05T22:54:08.731Z,13.15
2022-09-05T22:58:10.116Z,4.55
2022-09-05T23:02:07.179Z,4.50
2022-09-05T23:06:10.627Z,5.97
2022-09-05T23:10:07.953Z,5.38
2022-09-05T23:14:05.014Z,3.97
2022-09-05T23:18:03.558Z,5.20
2022-09-05T23:22:00.594Z,6.18
2022-09-05T23:26:11.499Z,4.22
2022-09-05T23:30:09.643Z,9.52
2022-09-05T23:34:06.658Z,6.10
2022-09-05T23:38:09.183Z,6.40
2022-09-05T23:42:06.471Z,5.88
2022-09-05T23:46:05.663Z,5.82
2022-09-05T23:50:04.142Z,4.40
2022-09-05T23:54:01.265Z,4.60
2022-09-05T23:57:58.945Z,5.10
